Time;durP1;ratioP1;P1;durP2;ratioP2;P2;SDS_P1;SDS_P2;PMS_P1;PMS_P2;Temp;Humidity;BMP_temperature;BMP_pressure;BME280_temperature;BME280_humidity;BME280_pressure;Samples;Min_cycle;Max_cycle;Signal;HPM_P1;HPM_P2
2021/12/13 00:02:05;;;;;;;31.98;15.43;;;;;;;-2.93;77.19;101970.53;5099404;28;20044;-70
2021/12/13 00:04:39;;;;;;;29.38;15.43;;;;;;;-3.01;76.92;101950.81;5097363;28;20440;-71
2021/12/13 00:07:13;;;;;;;32.22;16.05;;;;;;;-3.05;77.79;101960.50;5099258;28;20040;-72
2021/12/13 00:09:43;;;;;;;28.50;14.98;;;;;;;-3.05;78.02;101965.72;5099116;28;20043;-70
2021/12/13 00:12:10;;;;;;;33.88;15.35;;;;;;;-2.96;77.92;101970.63;5099344;28;20032;-69
2021/12/13 00:14:45;;;;;;;28.02;15.63;;;;;;;-2.95;77.72;101967.13;5099431;28;20506;-71
2021/12/13 00:17:17;;;;;;;32.13;15.65;;;;;;;-3.00;77.41;101962.97;5099239;28;20111;-71
2021/12/13 00:19:50;;;;;;;34.78;20.40;;;;;;;-3.22;78.19;101931.47;5099445;28;20181;-71
2021/12/13 00:22:31;;;;;;;35.17;16.73;;;;;;;-2.99;78.54;101969.88;5081239;28;20060;-71
2021/12/13 00:25:16;;;;;;;34.17;18.13;;;;;;;-2.99;78.06;101967.28;5098876;28;20046;-70
2021/12/13 00:27:50;;;;;;;33.78;18.00;;;;;;;-3.01;78.22;101967.31;5099158;28;20028;-71
2021/12/13 00:30:40;;;;;;;29.33;18.33;;;;;;;-3.08;78.58;101952.78;5099320;28;20505;-70
2021/12/13 00:33:20;;;;;;;31.42;17.02;;;;;;;-2.89;77.89;101971.28;5099001;28;20522;-71
2021/12/13 00:35:50;;;;;;;32.75;17.08;;;;;;;-2.87;77.92;101965.16;5098786;28;20499;-71
2021/12/13 00:38:20;;;;;;;30.80;17.45;;;;;;;-2.91;78.25;101957.44;5095741;28;20093;-72
2021/12/13 00:40:58;;;;;;;36.20;18.40;;;;;;;-2.89;78.41;101953.94;5095448;28;20032;-69
2021/12/13 00:43:28;;;;;;;34.15;18.63;;;;;;;-2.89;77.84;101963.47;5095969;28;20039;-67
2021/12/13 00:46:02;;;;;;;36.15;20.27;;;;;;;-2.88;78.92;101963.44;5095391;28;20035;-68
2021/12/13 00:48:30;;;;;;;34.33;19.02;;;;;;;-3.12;78.36;101914.69;5095214;28;20048;-69
2021/12/13 00:51:12;;;;;;;30.65;16.30;;;;;;;-2.87;78.43;101943.44;5095301;28;20024;-68
2021/12/13 00:53:41;;;;;;;28.38;16.25;;;;;;;-2.71;77.89;101954.22;5095024;28;20071;-68
2021/12/13 00:56:25;;;;;;;;;;;;;;;-2.70;77.75;101948.13;5095253;28;20115;-69
2021/12/13 00:58:51;;;;;;;35.03;15.82;;;;;;;-2.83;78.16;101951.13;5095154;28;20340;-69
2021/12/13 01:01:17;;;;;;;27.23;15.60;;;;;;;-2.90;79.05;101951.34;5094650;28;20036;-68
2021/12/13 01:03:49;;;;;;;28.40;16.67;;;;;;;-2.99;78.79;101939.44;5094640;28;20078;-69
2021/12/13 01:07:11;;;;;;;46.38;20.17;;;;;;;-2.93;79.68;101949.69;5094418;28;20441;-69
2021/12/13 01:10:15;;;;;;;34.13;16.73;;;;;;;-2.95;79.58;101955.84;5094607;28;20127;-69
2021/12/13 01:12:42;;;;;;;31.95;18.55;;;;;;;-3.12;80.21;101912.94;5091385;28;20044;-68
2021/12/13 01:15:16;;;;;;;29.42;16.73;;;;;;;-2.89;79.11;101946.09;5094357;28;20502;-69
2021/12/13 01:20:28;;;;;;;32.88;17.65;;;;;;;-2.94;79.61;101932.34;5094618;28;20043;-68
2021/12/13 01:23:03;;;;;;;35.47;17.13;;;;;;;-2.83;79.10;101945.06;5094379;28;20135;-69
2021/12/13 01:26:13;;;;;;;35.20;17.73;;;;;;;-2.85;79.06;101931.22;5094253;28;20039;-68
2021/12/13 01:28:43;;;;;;;35.47;17.23;;;;;;;-2.72;79.42;101942.94;5087139;28;20082;-69
2021/12/13 01:31:10;;;;;;;40.33;17.77;;;;;;;-2.65;79.32;101946.19;5094106;28;20040;-69
2021/12/13 01:33:40;;;;;;;32.55;15.75;;;;;;;-2.77;79.46;101920.53;5094084;28;20088;-69
2021/12/13 01:36:10;;;;;;;30.73;15.45;;;;;;;-2.74;79.89;101918.69;5093900;28;20040;-68
2021/12/13 01:38:47;;;;;;;32.10;16.20;;;;;;;-2.60;79.12;101926.06;5094127;28;20448;-70
2021/12/13 01:41:20;;;;;;;43.65;20.35;;;;;;;-2.67;79.26;101916.72;5094067;28;20043;-68
2021/12/13 01:43:50;;;;;;;40.35;19.88;;;;;;;-2.52;78.96;101939.72;5093979;28;20044;-69
2021/12/13 01:46:19;;;;;;;37.17;19.48;;;;;;;-2.53;79.43;101932.78;5093737;28;20031;-69
2021/12/13 01:48:47;;;;;;;40.47;19.65;;;;;;;-2.57;79.18;101919.00;5092648;28;20040;-69
2021/12/13 01:51:15;;;;;;;37.00;18.88;;;;;;;-2.46;79.03;101928.22;5093535;28;20039;-68
2021/12/13 01:53:44;;;;;;;39.22;18.92;;;;;;;-2.43;79.43;101935.94;5093894;28;20066;-68
2021/12/13 01:56:35;;;;;;;32.15;16.80;;;;;;;-2.80;79.45;101871.97;5093592;28;20047;-68
2021/12/13 01:59:06;;;;;;;42.63;19.42;;;;;;;-2.64;79.44;101925.28;5095523;28;20035;-69
2021/12/13 02:01:32;;;;;;;36.15;19.38;;;;;;;-2.64;79.84;101922.69;5096030;28;20039;-68
2021/12/13 02:04:04;;;;;;;46.72;22.45;;;;;;;-2.64;79.37;101922.69;5096157;28;20032;-68
2021/12/13 02:06:47;;;;;;;35.53;18.35;;;;;;;-2.61;79.76;101916.50;5097987;28;20422;-67
2021/12/13 02:09:25;;;;;;;37.72;20.35;;;;;;;-2.65;79.52;101910.56;5094327;28;20040;-69
2021/12/13 02:11:56;;;;;;;41.83;21.23;;;;;;;-2.65;79.62;101913.16;5094562;28;20036;-67
2021/12/13 02:14:26;;;;;;;40.90;21.15;;;;;;;-2.56;80.01;101918.09;5094228;28;20036;-68
2021/12/13 02:19:37;;;;;;;39.28;18.92;;;;;;;-2.48;79.02;101903.94;5093350;28;20265;-68
2021/12/13 02:22:25;;;;;;;37.15;20.02;;;;;;;-2.38;79.55;101920.97;5092972;28;20032;-69
2021/12/13 02:24:54;;;;;;;35.70;18.67;;;;;;;-2.51;79.24;101892.69;5093590;28;20040;-69
2021/12/13 02:27:24;;;;;;;37.72;20.85;;;;;;;-2.42;80.17;101909.78;5093101;28;20543;-69
2021/12/13 02:29:53;;;;;;;38.88;20.40;;;;;;;-2.43;78.78;101900.25;5093458;28;20036;-67
2021/12/13 02:32:20;;;;;;;37.90;20.67;;;;;;;-2.34;78.98;101897.34;5092986;28;20572;-70
2021/12/13 02:34:46;;;;;;;35.38;18.35;;;;;;;-2.36;79.02;101899.13;5092735;28;20506;-68
2021/12/13 02:37:12;;;;;;;35.53;16.50;;;;;;;-2.42;78.85;101894.13;5092955;28;20042;-68
2021/12/13 02:39:48;;;;;;;35.23;18.13;;;;;;;-2.54;78.72;101868.47;5092831;28;20438;-70
2021/12/13 02:42:17;;;;;;;34.00;18.80;;;;;;;-2.39;80.19;101886.19;5092867;28;20258;-69
2021/12/13 02:44:47;;;;;;;38.25;20.40;;;;;;;-2.32;79.39;101894.66;5092831;28;20724;-69
2021/12/13 02:47:17;;;;;;;41.50;20.10;;;;;;;-2.37;79.96;101902.66;5091450;28;20047;-69
2021/12/13 02:49:43;;;;;;;58.17;25.77;;;;;;;-2.50;79.55;101868.31;5092551;28;20258;-69
2021/12/13 02:52:13;;;;;;;44.60;23.42;;;;;;;-2.29;78.92;101890.22;5092798;28;20273;-69
2021/12/13 02:54:46;;;;;;;32.87;17.50;;;;;;;-2.21;78.95;101893.41;5092900;28;20032;-68
2021/12/13 02:57:32;;;;;;;33.28;19.10;;;;;;;-2.17;78.78;101896.75;5092913;28;20270;-69
2021/12/13 03:00:11;;;;;;;45.37;22.33;;;;;;;-2.13;78.80;101900.13;5091940;28;20501;-70
2021/12/13 03:02:42;;;;;;;45.53;23.17;;;;;;;-2.12;78.78;101896.59;5092705;28;20353;-69
2021/12/13 03:05:15;;;;;;;41.50;21.02;;;;;;;-2.14;78.48;101914.06;5092535;28;20047;-68
2021/12/13 03:07:47;;;;;;;36.93;18.53;;;;;;;-2.19;78.85;101882.91;5092373;28;20032;-69
2021/12/13 03:10:21;;;;;;;44.75;19.73;;;;;;;-2.16;79.00;101895.84;5091518;28;20266;-70
2021/12/13 03:12:46;;;;;;;34.03;18.17;;;;;;;-2.17;79.20;101911.56;5091290;28;20146;-69
2021/12/13 03:15:17;;;;;;;31.00;16.37;;;;;;;-2.25;79.14;101880.53;5092262;28;20377;-70
2021/12/13 03:18:01;;;;;;;30.35;18.58;;;;;;;-2.10;79.18;101900.00;5092585;28;20072;-68
2021/12/13 03:20:45;;;;;;;33.67;17.57;;;;;;;-2.20;78.58;101899.47;5091133;28;20035;-70
2021/12/13 03:23:20;;;;;;;37.83;18.58;;;;;;;-2.21;79.35;101900.38;5092201;28;20780;-68
2021/12/13 03:25:46;;;;;;;29.55;17.30;;;;;;;-2.21;79.43;101898.63;5092398;28;20052;-70
2021/12/13 03:28:43;;;;;;;30.87;17.53;;;;;;;-2.10;79.25;101905.22;5092046;28;20130;-68
2021/12/13 03:31:14;;;;;;;37.23;19.93;;;;;;;-2.05;79.41;101905.91;5091962;28;20452;-68
2021/12/13 03:34:00;;;;;;;36.97;18.35;;;;;;;-2.01;79.19;101897.94;5092424;28;20321;-69
2021/12/13 03:36:38;;;;;;;27.67;16.20;;;;;;;-2.22;78.99;101857.78;5074117;28;20035;-69
2021/12/13 03:39:07;;;;;;;33.00;17.65;;;;;;;-1.98;78.48;101894.38;5091802;28;20032;-69
2021/12/13 03:41:38;;;;;;;31.95;17.90;;;;;;;-1.94;78.28;101896.81;5092235;28;20128;-68
2021/12/13 03:44:11;;;;;;;30.03;17.17;;;;;;;-1.95;78.14;101881.19;5092022;28;20032;-68
2021/12/13 03:46:37;;;;;;;24.65;14.60;;;;;;;-1.97;78.37;101881.25;5091856;28;20270;-69
2021/12/13 03:49:05;;;;;;;24.33;14.13;;;;;;;-2.00;78.34;101880.50;5091920;28;20039;-67
2021/12/13 03:51:33;;;;;;;32.58;17.48;;;;;;;-1.99;78.17;101890.06;5091950;28;20752;-71
2021/12/13 03:54:01;;;;;;;25.30;15.32;;;;;;;-1.96;78.10;101884.72;5091453;28;20036;-68
2021/12/13 03:56:32;;;;;;;28.33;16.90;;;;;;;-2.01;78.76;101884.88;5090508;28;20071;-70
2021/12/13 03:59:13;;;;;;;28.17;15.50;;;;;;;-1.94;78.62;101882.91;5091846;28;20262;-68
2021/12/13 04:01:46;;;;;;;29.45;16.33;;;;;;;-1.98;78.71;101890.00;5091779;28;20250;-69
2021/12/13 04:04:16;;;;;;;28.23;18.10;;;;;;;-1.99;78.79;101884.81;5091508;28;20028;-69
2021/12/13 04:06:52;;;;;;;27.83;15.43;;;;;;;-2.03;78.46;101867.53;5092353;28;20035;-67
2021/12/13 04:09:20;;;;;;;25.65;15.38;;;;;;;-2.02;78.14;101875.34;5095331;28;20089;-69
2021/12/13 04:11:47;;;;;;;22.63;13.82;;;;;;;-1.99;77.60;101884.81;5077252;28;20506;-69
2021/12/13 04:14:25;;;;;;;26.37;14.83;;;;;;;-2.01;77.42;101873.59;5095992;28;20494;-71
2021/12/13 04:17:04;;;;;;;26.75;14.88;;;;;;;-1.98;77.99;101883.91;5077033;28;20270;-71
2021/12/13 04:19:45;;;;;;;28.35;15.07;;;;;;;-2.03;77.93;101871.00;5095316;28;20039;-67
2021/12/13 04:22:11;;;;;;;25.63;16.55;;;;;;;-2.02;77.81;101879.72;5095060;28;20123;-66
2021/12/13 04:24:46;;;;;;;24.43;16.57;;;;;;;-1.95;78.36;101878.59;5095577;28;20437;-69
2021/12/13 04:27:21;;;;;;;26.07;14.73;;;;;;;-1.94;77.76;101880.28;5095171;28;20271;-71
2021/12/13 04:29:49;;;;;;;27.52;16.25;;;;;;;-1.95;78.24;101873.38;5096839;28;20284;-69
2021/12/13 04:32:15;;;;;;;25.33;14.15;;;;;;;-1.89;78.56;101878.34;5098024;28;20071;-70
2021/12/13 04:34:42;;;;;;;29.57;16.37;;;;;;;-1.91;78.69;101877.56;5094558;28;20072;-66
2021/12/13 04:37:12;;;;;;;26.35;14.77;;;;;;;-1.91;78.45;101874.94;5076849;28;20470;-65
2021/12/13 04:39:40;;;;;;;24.10;15.52;;;;;;;-1.91;78.67;101886.25;5094241;28;20039;-65
2021/12/13 04:42:10;;;;;;;23.08;14.35;;;;;;;-1.92;78.02;101886.31;5094432;28;20127;-64
2021/12/13 04:44:43;;;;;;;26.73;15.63;;;;;;;-2.02;78.70;101887.56;5094773;28;20035;-63
2021/12/13 04:47:14;;;;;;;25.67;14.80;;;;;;;-2.07;78.13;101876.41;5094878;28;20674;-65
2021/12/13 04:49:46;;;;;;;24.77;15.07;;;;;;;-2.06;78.14;101889.41;5094864;28;20262;-66
2021/12/13 04:52:16;;;;;;;25.27;14.30;;;;;;;-2.03;78.72;101888.44;5093657;28;20703;-63
2021/12/13 04:54:49;;;;;;;23.57;12.30;;;;;;;-2.08;78.83;101875.53;5092767;28;20071;-66
2021/12/13 04:57:16;;;;;;;22.03;13.80;;;;;;;-1.97;77.76;101885.63;5092715;28;20804;-67
2021/12/13 04:59:49;;;;;;;26.58;15.70;;;;;;;-1.99;78.75;101879.59;5074468;28;20262;-67
2021/12/13 05:02:15;;;;;;;28.97;15.57;;;;;;;-2.05;78.74;101877.19;5092987;28;20036;-65
2021/12/13 05:04:41;;;;;;;27.37;14.63;;;;;;;-1.95;78.42;101883.81;5092946;28;20258;-66
2021/12/13 05:07:07;;;;;;;27.10;14.83;;;;;;;-1.97;78.89;101880.41;5092551;28;20373;-65
2021/12/13 05:09:34;;;;;;;26.43;14.97;;;;;;;-1.91;78.80;101880.19;5093653;28;20058;-66
2021/12/13 05:12:09;;;;;;;27.50;13.32;;;;;;;-1.93;78.04;101884.59;5094440;28;20262;-64
2021/12/13 05:14:40;;;;;;;27.48;15.65;;;;;;;-1.94;77.78;101880.28;5094327;28;20133;-68
2021/12/13 05:17:19;;;;;;;27.87;16.60;;;;;;;-1.99;78.06;101890.06;5075839;28;20036;-70
2021/12/13 05:19:53;;;;;;;24.88;14.90;;;;;;;-2.02;77.49;101883.19;5094427;28;20274;-66
2021/12/13 05:22:22;;;;;;;26.75;15.13;;;;;;;-2.04;78.57;101874.53;5094381;28;20056;-66
2021/12/13 05:25:37;;;;;;;23.80;13.93;;;;;;;-1.93;77.70;101887.22;5080475;28;20058;-66
2021/12/13 05:28:07;;;;;;;25.10;14.07;;;;;;;-2.28;78.35;101829.31;5097712;28;20274;-67
2021/12/13 05:30:43;;;;;;;27.55;15.10;;;;;;;-2.03;78.87;101870.16;5095719;28;20032;-68
2021/12/13 05:33:31;;;;;;;29.23;15.52;;;;;;;-2.11;78.19;101866.97;5095264;28;20507;-66
2021/12/13 05:36:31;;;;;;;27.17;14.98;;;;;;;-1.94;77.94;101895.94;5096850;28;20092;-68
2021/12/13 05:39:37;;;;;;;28.03;13.70;;;;;;;-2.10;78.14;101889.56;5098091;28;20032;-69
2021/12/13 05:42:11;;;;;;;23.60;13.98;;;;;;;-2.11;78.22;101874.81;5098349;28;20373;-69
2021/12/13 05:45:08;;;;;;;24.40;13.13;;;;;;;-1.99;77.86;101898.72;5075030;28;20032;-69
2021/12/13 05:47:35;;;;;;;24.00;13.77;;;;;;;-2.03;77.49;101901.47;5069751;28;20050;-65
2021/12/13 05:50:01;;;;;;;25.98;15.50;;;;;;;-2.06;77.68;101901.59;5094105;28;20061;-68
2021/12/13 05:52:38;;;;;;;28.88;14.52;;;;;;;-2.06;78.02;101902.44;5076842;28;20087;-66
2021/12/13 05:55:13;;;;;;;24.70;14.90;;;;;;;-2.07;78.29;101899.88;5095032;28;20115;-71
2021/12/13 05:57:48;;;;;;;23.88;13.95;;;;;;;-2.12;78.11;101887.00;5092871;28;20275;-68
2021/12/13 06:00:27;;;;;;;24.77;14.10;;;;;;;-2.01;77.94;101897.09;5093516;28;20036;-69
2021/12/13 06:03:16;;;;;;;24.70;13.60;;;;;;;-2.03;78.20;101901.47;5093478;28;20126;-67
2021/12/13 06:05:48;;;;;;;24.23;15.38;;;;;;;-2.16;78.52;101887.16;5092328;28;20031;-71
2021/12/13 06:08:30;;;;;;;23.13;14.43;;;;;;;-2.09;78.73;101893.88;5093297;28;20036;-67
2021/12/13 06:11:03;;;;;;;25.58;14.48;;;;;;;-2.01;78.05;101905.78;5093164;28;20040;-66
2021/12/13 06:13:37;;;;;;;29.13;13.82;;;;;;;-1.96;77.99;101903.00;5092691;28;20032;-71
2021/12/13 06:16:03;;;;;;;23.17;14.02;;;;;;;-2.08;78.11;101879.91;5092502;28;20032;-70
2021/12/13 06:19:02;;;;;;;23.90;14.63;;;;;;;-1.97;78.20;101893.47;5092642;28;20059;-67
2021/12/13 06:21:40;;;;;;;27.20;14.77;;;;;;;-1.85;77.80;101910.44;5092946;28;20066;-68
2021/12/13 06:24:07;;;;;;;22.93;14.17;;;;;;;-1.88;78.02;101900.94;5092698;28;20285;-67
2021/12/13 06:26:34;;;;;;;31.53;15.60;;;;;;;-1.84;77.88;101905.16;5092686;28;20290;-69
2021/12/13 06:29:03;;;;;;;26.35;15.80;;;;;;;-2.14;78.25;101872.31;5074777;28;20277;-71
2021/12/13 06:31:40;;;;;;;29.45;15.52;;;;;;;-2.00;78.66;101907.47;5092651;28;20437;-71
2021/12/13 06:34:09;;;;;;;27.37;15.57;;;;;;;-2.00;78.43;101917.06;5093192;28;20144;-81
2021/12/13 06:36:41;;;;;;;22.45;13.77;;;;;;;-2.14;78.77;101904.47;5092625;28;20274;-77
2021/12/13 06:39:28;;;;;;;27.77;16.27;;;;;;;-2.03;78.86;101922.38;5095704;28;20032;-79
2021/12/13 06:42:02;;;;;;;28.23;13.90;;;;;;;-2.25;78.82;101886.59;5076478;28;20281;-76
2021/12/13 06:44:42;;;;;;;20.83;12.68;;;;;;;-1.99;78.60;101930.06;5093981;28;20270;-81
2021/12/13 06:47:18;;;;;;;26.23;14.05;;;;;;;-2.01;78.67;101920.59;5059476;28;20028;-74
2021/12/13 06:49:50;;;;;;;31.23;14.70;;;;;;;-1.89;79.05;101935.81;5093386;28;20032;-66
2021/12/13 06:52:15;;;;;;;28.17;16.48;;;;;;;-1.85;78.29;101946.97;5092390;28;20749;-73
2021/12/13 06:54:48;;;;;;;23.27;14.33;;;;;;;-1.90;78.24;101944.53;5074564;28;20078;-68
2021/12/13 06:57:20;;;;;;;26.20;13.65;;;;;;;-1.95;79.57;101949.06;5092483;28;20036;-67
2021/12/13 06:59:51;;;;;;;27.97;15.80;;;;;;;-1.99;78.46;101939.66;5092286;28;20470;-66
2021/12/13 07:02:24;;;;;;;33.45;18.02;;;;;;;-2.05;78.68;101930.25;5092280;28;20353;-67
2021/12/13 07:05:06;;;;;;;32.27;15.50;;;;;;;-1.92;79.08;101956.81;5092433;28;20445;-64
2021/12/13 07:08:01;;;;;;;23.50;14.30;;;;;;;-1.85;79.56;101960.03;5092065;28;20719;-65
2021/12/13 07:10:33;;;;;;;23.37;14.60;;;;;;;-1.77;78.23;101960.63;5074483;28;20282;-70
2021/12/13 07:13:03;;;;;;;23.80;13.05;;;;;;;-1.71;78.25;101963.88;5092154;28;20267;-70
2021/12/13 07:15:34;;;;;;;28.80;14.93;;;;;;;-1.77;78.34;101951.03;5091979;28;20491;-73
2021/12/13 07:18:21;;;;;;;23.87;14.60;;;;;;;-1.67;77.92;101968.09;5091754;28;20262;-72
2021/12/13 07:20:55;;;;;;;24.60;15.30;;;;;;;-1.67;78.15;101960.25;5091973;28;20274;-68
2021/12/13 07:23:21;;;;;;;29.57;15.53;;;;;;;-1.73;77.60;101963.09;5091798;28;20350;-68
2021/12/13 07:25:49;;;;;;;26.53;14.57;;;;;;;-1.77;78.15;101960.63;5091691;28;20270;-69
2021/12/13 07:28:37;;;;;;;28.70;14.73;;;;;;;-1.65;78.75;101970.63;5092070;28;20278;-71
2021/12/13 07:31:07;;;;;;;30.90;15.43;;;;;;;-1.67;78.61;101962.84;5091999;28;20305;-69
2021/12/13 07:33:44;;;;;;;22.50;13.33;;;;;;;-1.68;78.50;101955.94;5073740;28;20377;-72
2021/12/13 07:36:24;;;;;;;26.13;15.23;;;;;;;-1.57;78.47;101974.66;5092261;28;20356;-72
2021/12/13 07:38:56;;;;;;;29.07;15.40;;;;;;;-1.62;78.20;101965.31;5092413;28;20258;-72
2021/12/13 07:41:23;;;;;;;29.67;15.50;;;;;;;-1.53;78.43;101977.16;5092833;28;20262;-71
2021/12/13 07:43:49;;;;;;;28.63;16.93;;;;;;;-1.75;78.62;101970.09;5092697;28;20295;-73
2021/12/13 07:46:20;;;;;;;23.83;13.97;;;;;;;-1.63;78.99;101995.78;5058333;28;20274;-75
2021/12/13 07:48:46;;;;;;;29.53;15.87;;;;;;;-1.57;78.85;101999.94;5095614;28;20028;-65
2021/12/13 07:51:25;;;;;;;26.63;15.10;;;;;;;-1.51;78.16;101998.88;5095712;28;20263;-74
2021/12/13 07:53:57;;;;;;;30.80;17.73;;;;;;;-1.46;78.49;102003.00;5095953;28;20074;-70
2021/12/13 07:56:45;;;;;;;29.13;16.50;;;;;;;-1.48;78.65;101993.53;5078113;28;20269;-71
2021/12/13 07:59:29;;;;;;;29.58;16.77;;;;;;;-1.47;78.34;102008.28;5088250;28;20266;-69
2021/12/13 08:02:16;;;;;;;24.37;14.37;;;;;;;-1.53;78.26;102005.91;5077651;28;20066;-71
2021/12/13 08:04:50;;;;;;;25.17;14.17;;;;;;;-1.49;78.52;102002.28;5096698;28;20258;-71
2021/12/13 08:07:30;;;;;;;31.70;15.97;;;;;;;-1.51;78.36;102004.94;5096566;28;20270;-75
2021/12/13 08:10:09;;;;;;;27.20;14.67;;;;;;;-1.39;78.71;102014.97;5095489;28;20419;-66
2021/12/13 08:12:36;;;;;;;;;;;;;;;-1.30;78.61;102019.00;5096230;28;20282;-63
2021/12/13 08:15:18;;;;;;;24.37;13.50;;;;;;;-1.30;78.71;102024.22;5078293;28;19916;-67
2021/12/13 08:17:54;;;;;;;27.17;14.20;;;;;;;-1.28;78.66;102030.25;5098121;28;20266;-71
2021/12/13 08:20:34;;;;;;;27.70;16.33;;;;;;;-1.22;78.10;102021.31;5097885;28;20327;-67
2021/12/13 08:23:22;;;;;;;24.83;15.40;;;;;;;-1.35;78.66;102010.47;5095356;28;20297;-69
2021/12/13 08:25:52;;;;;;;20.08;11.32;;;;;;;-1.22;78.52;102024.78;5095744;28;20290;-68
2021/12/13 08:28:29;;;;;;;25.30;14.33;;;;;;;-1.17;78.43;102025.47;5095486;28;20104;-70
2021/12/13 08:30:59;;;;;;;26.25;15.45;;;;;;;-1.26;78.52;102017.97;5095295;28;20314;-65
2021/12/13 08:33:40;;;;;;;22.50;13.35;;;;;;;-1.13;78.16;102055.84;5077806;28;20032;-63
2021/12/13 08:36:37;;;;;;;22.07;13.37;;;;;;;-1.12;78.07;102051.47;5095095;28;20047;-61
2021/12/13 08:39:25;;;;;;;22.53;14.57;;;;;;;-1.20;78.50;102056.94;5093930;28;20314;-66
2021/12/13 08:42:11;;;;;;;;;;;;;;;-1.18;78.36;102044.69;5095652;28;20262;-60
2021/12/13 08:44:46;;;;;;;25.70;13.40;;;;;;;-1.20;78.97;102040.41;5077243;28;19916;-69
2021/12/13 08:47:18;;;;;;;24.27;14.93;;;;;;;-1.31;79.33;102040.81;5095028;28;20334;-65
2021/12/13 08:50:05;;;;;;;27.30;14.40;;;;;;;-1.33;79.68;102027.81;5095380;28;20313;-66
2021/12/13 08:52:35;;;;;;;28.17;16.23;;;;;;;-1.25;79.47;102038.81;5096203;28;20366;-63
2021/12/13 08:55:12;;;;;;;25.50;15.13;;;;;;;-1.26;79.81;102041.50;5095880;28;20285;-64
2021/12/13 08:57:44;;;;;;;22.70;14.57;;;;;;;-1.23;80.00;102043.16;5095655;28;20298;-62
2021/12/13 09:00:12;;;;;;;26.30;14.70;;;;;;;-1.19;79.83;102034.28;5098050;28;20263;-62
2021/12/13 09:02:42;;;;;;;25.30;15.38;;;;;;;-1.17;79.25;102025.47;5098705;28;20708;-61
2021/12/13 09:05:12;;;;;;;27.97;14.90;;;;;;;-1.17;79.42;102030.69;5096265;28;20189;-67
2021/12/13 09:08:05;;;;;;;30.17;15.17;;;;;;;-1.12;79.50;102039.25;5096865;28;20258;-65
2021/12/13 09:10:51;;;;;;;31.97;17.67;;;;;;;-1.07;79.77;102039.06;5076154;28;20265;-65
2021/12/13 09:13:20;;;;;;;28.97;14.10;;;;;;;-1.10;79.91;102042.66;5094048;28;20674;-64
2021/12/13 09:15:48;;;;;;;27.63;15.77;;;;;;;-1.05;79.84;102050.31;5094263;28;20292;-67
2021/12/13 09:18:21;;;;;;;29.90;17.10;;;;;;;-1.09;80.05;102049.59;5094254;28;20274;-72
2021/12/13 09:20:52;;;;;;;37.47;15.87;;;;;;;-1.18;80.35;102029.00;5094632;28;20325;-70
2021/12/13 09:23:22;;;;;;;33.60;17.67;;;;;;;-1.15;81.05;102044.59;5094910;28;20286;-71
2021/12/13 09:26:19;;;;;;;34.47;17.20;;;;;;;-1.04;80.84;102050.25;5094671;28;20379;-69
2021/12/13 09:28:51;;;;;;;37.00;17.13;;;;;;;-1.05;80.81;102050.31;5105990;28;20638;-74
2021/12/13 09:31:36;;;;;;;38.23;17.00;;;;;;;-0.95;81.27;102047.28;5116835;28;20362;-73
2021/12/13 09:34:20;;;;;;;37.50;17.93;;;;;;;-1.47;81.10;101966.50;5116789;28;20289;-74
2021/12/13 09:36:49;;;;;;;43.13;20.23;;;;;;;-0.98;81.22;102044.81;5117041;28;20289;-72
2021/12/13 09:39:28;;;;;;;43.37;21.93;;;;;;;-0.93;81.38;102053.31;5116919;28;20667;-75
2021/12/13 09:42:11;;;;;;;40.40;19.25;;;;;;;-1.13;81.83;102016.63;5117350;28;20362;-74
2021/12/13 09:45:07;;;;;;;39.23;19.23;;;;;;;-0.84;82.04;102054.75;5099486;28;20036;-74
2021/12/13 09:47:38;;;;;;;41.97;20.13;;;;;;;-0.77;81.81;102060.59;5098397;28;20273;-74
2021/12/13 09:50:33;;;;;;;39.73;22.00;;;;;;;-0.70;81.64;102051.59;5116781;28;20276;-68
2021/12/13 09:53:10;;;;;;;42.60;19.37;;;;;;;-0.69;81.44;102058.53;5079483;28;20297;-68
2021/12/13 09:55:41;;;;;;;33.83;16.53;;;;;;;-0.76;81.38;102063.16;5096762;28;20285;-70
2021/12/13 09:58:21;;;;;;;28.73;17.43;;;;;;;-0.67;81.27;102073.25;5096700;28;20269;-62
2021/12/13 10:01:08;;;;;;;38.27;16.67;;;;;;;-0.73;81.74;102051.72;5115722;28;20748;-67
2021/12/13 10:03:45;;;;;;;35.93;19.13;;;;;;;-0.62;81.48;102065.22;5115764;28;20296;-68
2021/12/13 10:06:12;;;;;;;39.73;19.47;;;;;;;-0.58;81.33;102065.97;5114705;28;20776;-68
2021/12/13 10:08:52;;;;;;;35.97;17.67;;;;;;;-0.59;81.06;102059.03;5114732;28;20705;-66
2021/12/13 10:11:28;;;;;;;38.30;17.20;;;;;;;-0.50;81.24;102070.00;5113347;28;20274;-65
2021/12/13 10:13:54;;;;;;;36.63;18.97;;;;;;;-0.75;81.30;102023.00;5114403;28;20780;-63
2021/12/13 10:16:26;;;;;;;35.20;17.63;;;;;;;-0.53;81.09;102064.91;5113852;28;20299;-64
2021/12/13 10:18:56;;;;;;;36.23;16.20;;;;;;;-0.50;81.14;102058.69;5114421;28;20641;-62
2021/12/13 10:21:24;;;;;;;43.60;19.33;;;;;;;-0.46;81.26;102076.81;5113839;28;20265;-68
2021/12/13 10:24:05;;;;;;;36.20;17.20;;;;;;;-0.41;81.28;102072.25;5114144;28;20289;-66
2021/12/13 10:26:37;;;;;;;33.33;19.30;;;;;;;-0.46;80.82;102071.59;5115376;28;20309;-63
2021/12/13 10:29:09;;;;;;;30.97;15.60;;;;;;;-0.42;81.48;102082.78;5094060;28;20281;-62
2021/12/13 10:31:45;;;;;;;35.80;18.20;;;;;;;-1.09;80.68;101955.47;5115194;28;20372;-72
2021/12/13 10:34:19;;;;;;;37.20;18.33;;;;;;;-0.32;81.25;102069.25;5094940;28;20308;-68
2021/12/13 10:36:51;;;;;;;32.67;18.87;;;;;;;-0.29;81.10;102067.44;5112751;28;20269;-70
2021/12/13 10:39:26;;;;;;;25.67;17.17;;;;;;;-0.13;81.19;102087.72;5113240;28;20269;-70
2021/12/13 10:41:55;;;;;;;32.33;17.13;;;;;;;-0.11;81.17;102085.03;5113074;28;20628;-70
2021/12/13 10:44:29;;;;;;;29.58;17.13;;;;;;;-0.13;80.77;102074.63;5097550;28;20643;-67
2021/12/13 10:47:30;;;;;;;28.03;15.20;;;;;;;0.00;80.50;102090.72;5098224;28;20480;-70
2021/12/13 10:49:56;;;;;;;26.67;15.10;;;;;;;-0.12;81.23;102072.88;5110700;28;20748;-69
2021/12/13 10:52:30;;;;;;;26.07;15.33;;;;;;;-0.19;81.55;102085.34;5115750;28;20273;-65
2021/12/13 10:55:00;;;;;;;28.67;15.73;;;;;;;-0.21;81.64;102086.34;5097269;28;20339;-67
2021/12/13 10:57:31;;;;;;;;;;;;;;;-0.17;81.19;102093.16;5116538;28;20306;-69
2021/12/13 10:59:59;;;;;;;21.00;11.43;;;;;;;-0.24;81.87;102096.94;5111933;28;20015;-67
2021/12/13 11:02:36;;;;;;;20.73;13.00;;;;;;;-0.26;82.36;102093.53;5111515;28;20257;-66
2021/12/13 11:05:10;;;;;;;22.57;13.50;;;;;;;-0.20;82.31;102101.13;5113423;28;20269;-66
2021/12/13 11:07:42;;;;;;;20.07;12.07;;;;;;;-0.20;81.99;102093.28;5080320;28;20356;-70
2021/12/13 11:10:12;;;;;;;20.83;13.27;;;;;;;-0.17;81.90;102090.53;5093020;28;20361;-66
2021/12/13 11:12:48;;;;;;;22.23;13.83;;;;;;;-0.24;82.31;102075.97;5111065;28;20636;-69
2021/12/13 11:15:21;;;;;;;22.13;14.27;;;;;;;-0.22;82.22;102076.78;5112206;28;20285;-70
2021/12/13 11:17:47;;;;;;;19.47;13.30;;;;;;;-0.21;82.02;102084.56;5112940;28;20272;-68
2021/12/13 11:20:24;;;;;;;20.93;12.13;;;;;;;-0.60;82.33;102015.47;5112604;28;20815;-68
2021/12/13 11:22:53;;;;;;;16.83;12.03;;;;;;;-0.13;82.59;102094.72;5112281;28;20130;-67
2021/12/13 11:25:29;;;;;;;19.17;13.53;;;;;;;-0.18;82.43;102080.97;5112282;28;20663;-69
2021/12/13 11:27:55;;;;;;;21.53;14.47;;;;;;;-0.10;82.26;102092.81;5112171;28;20270;-67
2021/12/13 11:30:25;;;;;;;24.43;15.20;;;;;;;-0.15;82.41;102084.31;5112395;28;20381;-67
2021/12/13 11:32:56;;;;;;;19.40;14.77;;;;;;;-0.10;82.43;102099.84;5112431;28;20035;-67
2021/12/13 11:36:06;;;;;;;30.33;15.73;;;;;;;-0.13;82.38;102092.09;5112249;28;20289;-68
2021/12/13 11:39:14;;;;;;;21.50;14.27;;;;;;;-0.08;82.87;102100.63;5111827;28;20284;-69
2021/12/13 11:42:07;;;;;;;25.98;15.18;;;;;;;-0.08;82.39;102104.09;5066956;28;20391;-67
2021/12/13 11:44:51;;;;;;;22.07;12.37;;;;;;;-0.07;82.40;102095.31;5112280;28;20099;-71
2021/12/13 11:47:54;;;;;;;29.67;16.80;;;;;;;-0.04;82.32;102097.81;5114352;28;20269;-67
2021/12/13 11:50:57;;;;;;;23.77;13.40;;;;;;;0.03;82.46;102103.69;5097174;28;20264;-69
2021/12/13 11:53:41;;;;;;;22.40;12.50;;;;;;;0.04;82.79;102105.38;5115419;28;20265;-68